sensor_id;sensor_type;location;lat;lon;timestamp;P1;durP1;ratioP1;P2;durP2;ratioP2
22359;SDS011;11347;52.030;4.690;2022-10-04T00:01:21;6.20;;;2.20;;
22359;SDS011;11347;52.030;4.690;2022-10-04T00:03:48;6.30;;;2.30;;
22359;SDS011;11347;52.030;4.690;2022-10-04T00:06:27;7.77;;;2.33;;
22359;SDS011;11347;52.030;4.690;2022-10-04T00:09:00;4.73;;;2.13;;
22359;SDS011;11347;52.030;4.690;2022-10-04T00:11:35;7.00;;;2.50;;
22359;SDS011;11347;52.030;4.690;2022-10-04T00:14:14;5.43;;;2.30;;
22359;SDS011;11347;52.030;4.690;2022-10-04T00:16:49;6.20;;;2.10;;
22359;SDS011;11347;52.030;4.690;2022-10-04T00:24:19;6.53;;;2.40;;
22359;SDS011;11347;52.030;4.690;2022-10-04T00:35:50;7.40;;;2.43;;
22359;SDS011;11347;52.030;4.690;2022-10-04T00:40:27;6.57;;;2.40;;
22359;SDS011;11347;52.030;4.690;2022-10-04T00:42:57;6.67;;;2.40;;
22359;SDS011;11347;52.030;4.690;2022-10-04T00:45:40;7.57;;;2.40;;
22359;SDS011;11347;52.030;4.690;2022-10-04T00:48:39;6.27;;;2.40;;
22359;SDS011;11347;52.030;4.690;2022-10-04T00:54:04;5.50;;;2.27;;
22359;SDS011;11347;52.030;4.690;2022-10-04T01:02:24;8.57;;;2.40;;
22359;SDS011;11347;52.030;4.690;2022-10-04T01:05:41;6.13;;;2.07;;
22359;SDS011;11347;52.030;4.690;2022-10-04T01:08:02;4.13;;;2.07;;
22359;SDS011;11347;52.030;4.690;2022-10-04T01:10:39;5.87;;;2.50;;
22359;SDS011;11347;52.030;4.690;2022-10-04T01:21:20;7.73;;;2.10;;
22359;SDS011;11347;52.030;4.690;2022-10-04T01:31:32;8.50;;;2.60;;
22359;SDS011;11347;52.030;4.690;2022-10-04T01:34:00;6.00;;;2.10;;
22359;SDS011;11347;52.030;4.690;2022-10-04T01:36:27;5.93;;;2.40;;
22359;SDS011;11347;52.030;4.690;2022-10-04T01:38:53;8.00;;;2.60;;
22359;SDS011;11347;52.030;4.690;2022-10-04T01:41:20;8.37;;;2.87;;
22359;SDS011;11347;52.030;4.690;2022-10-04T01:43:53;8.13;;;2.60;;
22359;SDS011;11347;52.030;4.690;2022-10-04T01:46:24;6.13;;;2.30;;
22359;SDS011;11347;52.030;4.690;2022-10-04T01:48:53;7.50;;;2.33;;
22359;SDS011;11347;52.030;4.690;2022-10-04T01:51:30;5.33;;;2.30;;
22359;SDS011;11347;52.030;4.690;2022-10-04T01:54:06;7.83;;;2.57;;
22359;SDS011;11347;52.030;4.690;2022-10-04T01:59:19;5.87;;;2.53;;
22359;SDS011;11347;52.030;4.690;2022-10-04T02:01:52;8.83;;;2.87;;
22359;SDS011;11347;52.030;4.690;2022-10-04T02:04:26;6.83;;;2.83;;
22359;SDS011;11347;52.030;4.690;2022-10-04T02:06:53;6.83;;;2.63;;
22359;SDS011;11347;52.030;4.690;2022-10-04T02:09:23;6.37;;;2.67;;
22359;SDS011;11347;52.030;4.690;2022-10-04T02:11:51;6.23;;;2.57;;
22359;SDS011;11347;52.030;4.690;2022-10-04T02:14:22;9.33;;;2.90;;
22359;SDS011;11347;52.030;4.690;2022-10-04T02:16:57;7.27;;;2.87;;
22359;SDS011;11347;52.030;4.690;2022-10-04T02:19:30;6.33;;;2.30;;
22359;SDS011;11347;52.030;4.690;2022-10-04T02:21:59;6.37;;;2.30;;
22359;SDS011;11347;52.030;4.690;2022-10-04T02:24:27;7.23;;;2.57;;
22359;SDS011;11347;52.030;4.690;2022-10-04T02:26:54;9.33;;;2.97;;
22359;SDS011;11347;52.030;4.690;2022-10-04T02:29:21;7.47;;;2.50;;
22359;SDS011;11347;52.030;4.690;2022-10-04T02:31:47;6.53;;;2.67;;
22359;SDS011;11347;52.030;4.690;2022-10-04T02:34:33;8.40;;;2.90;;
22359;SDS011;11347;52.030;4.690;2022-10-04T02:37:00;7.77;;;2.77;;
22359;SDS011;11347;52.030;4.690;2022-10-04T02:39:35;6.40;;;2.90;;
22359;SDS011;11347;52.030;4.690;2022-10-04T02:42:08;7.63;;;2.67;;
22359;SDS011;11347;52.030;4.690;2022-10-04T02:47:12;9.60;;;2.90;;
22359;SDS011;11347;52.030;4.690;2022-10-04T02:49:46;7.10;;;2.60;;
22359;SDS011;11347;52.030;4.690;2022-10-04T02:52:33;6.10;;;2.60;;
22359;SDS011;11347;52.030;4.690;2022-10-04T02:55:12;8.37;;;2.93;;
22359;SDS011;11347;52.030;4.690;2022-10-04T02:57:46;8.57;;;3.00;;
22359;SDS011;11347;52.030;4.690;2022-10-04T03:05:40;7.87;;;2.93;;
22359;SDS011;11347;52.030;4.690;2022-10-04T03:08:08;10.07;;;3.20;;
22359;SDS011;11347;52.030;4.690;2022-10-04T03:10:35;7.40;;;3.13;;
22359;SDS011;11347;52.030;4.690;2022-10-04T03:13:01;7.90;;;2.83;;
22359;SDS011;11347;52.030;4.690;2022-10-04T03:15:28;6.10;;;2.80;;
22359;SDS011;11347;52.030;4.690;2022-10-04T03:17:53;9.40;;;3.03;;
22359;SDS011;11347;52.030;4.690;2022-10-04T03:20:19;9.23;;;3.27;;
22359;SDS011;11347;52.030;4.690;2022-10-04T03:22:46;9.03;;;3.47;;
22359;SDS011;11347;52.030;4.690;2022-10-04T03:25:17;11.00;;;3.30;;
22359;SDS011;11347;52.030;4.690;2022-10-04T03:27:46;8.83;;;3.37;;
22359;SDS011;11347;52.030;4.690;2022-10-04T03:30:14;7.57;;;3.23;;
22359;SDS011;11347;52.030;4.690;2022-10-04T03:32:41;8.10;;;3.47;;
22359;SDS011;11347;52.030;4.690;2022-10-04T03:35:14;6.53;;;3.37;;
22359;SDS011;11347;52.030;4.690;2022-10-04T03:38:06;7.97;;;3.10;;
22359;SDS011;11347;52.030;4.690;2022-10-04T03:40:35;10.00;;;3.13;;
22359;SDS011;11347;52.030;4.690;2022-10-04T03:43:03;7.30;;;2.83;;
22359;SDS011;11347;52.030;4.690;2022-10-04T03:45:30;10.50;;;3.70;;
22359;SDS011;11347;52.030;4.690;2022-10-04T03:48:06;10.87;;;3.33;;
22359;SDS011;11347;52.030;4.690;2022-10-04T03:50:38;8.13;;;3.30;;
22359;SDS011;11347;52.030;4.690;2022-10-04T03:53:11;6.73;;;3.17;;
22359;SDS011;11347;52.030;4.690;2022-10-04T03:55:54;8.20;;;3.03;;
22359;SDS011;11347;52.030;4.690;2022-10-04T03:58:20;7.00;;;3.10;;
22359;SDS011;11347;52.030;4.690;2022-10-04T04:03:17;7.70;;;3.30;;
22359;SDS011;11347;52.030;4.690;2022-10-04T04:05:49;6.70;;;2.90;;
22359;SDS011;11347;52.030;4.690;2022-10-04T04:11:02;8.70;;;3.33;;
22359;SDS011;11347;52.030;4.690;2022-10-04T04:13:41;10.67;;;3.43;;
22359;SDS011;11347;52.030;4.690;2022-10-04T04:16:19;9.20;;;3.40;;
22359;SDS011;11347;52.030;4.690;2022-10-04T04:18:49;8.70;;;3.27;;
22359;SDS011;11347;52.030;4.690;2022-10-04T04:21:17;10.07;;;3.37;;
22359;SDS011;11347;52.030;4.690;2022-10-04T04:23:50;9.20;;;3.33;;
22359;SDS011;11347;52.030;4.690;2022-10-04T04:31:40;6.77;;;3.23;;
22359;SDS011;11347;52.030;4.690;2022-10-04T04:36:44;7.33;;;3.37;;
22359;SDS011;11347;52.030;4.690;2022-10-04T04:45:21;7.27;;;3.07;;
22359;SDS011;11347;52.030;4.690;2022-10-04T04:47:47;10.03;;;3.70;;
22359;SDS011;11347;52.030;4.690;2022-10-04T04:50:22;10.17;;;3.67;;
22359;SDS011;11347;52.030;4.690;2022-10-04T04:53:32;9.60;;;3.43;;
22359;SDS011;11347;52.030;4.690;2022-10-04T04:55:42;8.13;;;3.37;;
22359;SDS011;11347;52.030;4.690;2022-10-04T04:58:19;9.20;;;3.40;;
22359;SDS011;11347;52.030;4.690;2022-10-04T05:00:51;9.47;;;3.50;;
22359;SDS011;11347;52.030;4.690;2022-10-04T05:03:20;10.03;;;3.63;;
22359;SDS011;11347;52.030;4.690;2022-10-04T05:05:46;9.30;;;3.60;;
22359;SDS011;11347;52.030;4.690;2022-10-04T05:08:13;8.87;;;3.40;;
22359;SDS011;11347;52.030;4.690;2022-10-04T05:11:25;6.50;;;3.07;;
22359;SDS011;11347;52.030;4.690;2022-10-04T05:13:42;8.13;;;3.83;;
22359;SDS011;11347;52.030;4.690;2022-10-04T05:16:16;7.43;;;3.63;;
22359;SDS011;11347;52.030;4.690;2022-10-04T05:19:05;13.03;;;4.10;;
22359;SDS011;11347;52.030;4.690;2022-10-04T05:21:55;9.57;;;3.47;;
22359;SDS011;11347;52.030;4.690;2022-10-04T05:24:27;9.77;;;4.10;;
22359;SDS011;11347;52.030;4.690;2022-10-04T05:27:02;7.90;;;3.80;;
22359;SDS011;11347;52.030;4.690;2022-10-04T05:29:38;10.93;;;3.60;;
22359;SDS011;11347;52.030;4.690;2022-10-04T05:32:23;9.90;;;3.50;;
22359;SDS011;11347;52.030;4.690;2022-10-04T05:35:17;12.00;;;4.23;;
22359;SDS011;11347;52.030;4.690;2022-10-04T05:37:58;11.80;;;3.50;;
22359;SDS011;11347;52.030;4.690;2022-10-04T05:43:31;9.80;;;3.70;;
22359;SDS011;11347;52.030;4.690;2022-10-04T05:46:12;7.83;;;3.67;;
22359;SDS011;11347;52.030;4.690;2022-10-04T05:48:40;9.13;;;3.67;;
22359;SDS011;11347;52.030;4.690;2022-10-04T05:53:59;10.10;;;3.60;;
22359;SDS011;11347;52.030;4.690;2022-10-04T06:01:53;10.30;;;3.20;;
22359;SDS011;11347;52.030;4.690;2022-10-04T06:22:12;9.47;;;4.30;;
22359;SDS011;11347;52.030;4.690;2022-10-04T06:24:50;10.50;;;3.70;;
22359;SDS011;11347;52.030;4.690;2022-10-04T06:29:51;8.33;;;3.63;;
22359;SDS011;11347;52.030;4.690;2022-10-04T06:35:21;7.53;;;3.50;;
22359;SDS011;11347;52.030;4.690;2022-10-04T06:46:50;11.20;;;4.00;;
22359;SDS011;11347;52.030;4.690;2022-10-04T06:49:40;11.30;;;4.33;;
22359;SDS011;11347;52.030;4.690;2022-10-04T06:55:03;10.83;;;4.03;;
22359;SDS011;11347;52.030;4.690;2022-10-04T07:00:24;9.60;;;3.90;;
22359;SDS011;11347;52.030;4.690;2022-10-04T07:03:01;10.33;;;3.90;;
22359;SDS011;11347;52.030;4.690;2022-10-04T07:05:39;7.87;;;4.00;;
22359;SDS011;11347;52.030;4.690;2022-10-04T07:08:11;9.40;;;4.23;;
22359;SDS011;11347;52.030;4.690;2022-10-04T07:13:46;10.27;;;4.03;;
22359;SDS011;11347;52.030;4.690;2022-10-04T07:24:55;9.13;;;4.13;;
22359;SDS011;11347;52.030;4.690;2022-10-04T07:30:07;8.57;;;3.87;;
22359;SDS011;11347;52.030;4.690;2022-10-04T07:32:39;9.70;;;4.53;;
22359;SDS011;11347;52.030;4.690;2022-10-04T07:37:44;7.87;;;4.40;;
22359;SDS011;11347;52.030;4.690;2022-10-04T07:40:37;11.70;;;5.17;;
22359;SDS011;11347;52.030;4.690;2022-10-04T07:43:18;11.27;;;4.00;;
22359;SDS011;11347;52.030;4.690;2022-10-04T07:45:51;9.60;;;4.20;;
22359;SDS011;11347;52.030;4.690;2022-10-04T07:48:26;9.10;;;3.97;;
22359;SDS011;11347;52.030;4.690;2022-10-04T07:51:01;12.93;;;4.53;;
22359;SDS011;11347;52.030;4.690;2022-10-04T07:54:24;13.40;;;4.70;;
22359;SDS011;11347;52.030;4.690;2022-10-04T07:56:58;12.13;;;5.27;;
22359;SDS011;11347;52.030;4.690;2022-10-04T08:07:29;10.47;;;5.10;;
22359;SDS011;11347;52.030;4.690;2022-10-04T08:15:42;15.37;;;4.67;;
22359;SDS011;11347;52.030;4.690;2022-10-04T08:20:57;28.17;;;6.40;;
22359;SDS011;11347;52.030;4.690;2022-10-04T08:29:19;12.00;;;4.77;;
22359;SDS011;11347;52.030;4.690;2022-10-04T08:37:52;13.67;;;5.50;;
22359;SDS011;11347;52.030;4.690;2022-10-04T08:40:34;10.90;;;5.10;;
22359;SDS011;11347;52.030;4.690;2022-10-04T08:57:41;10.87;;;5.20;;
22359;SDS011;11347;52.030;4.690;2022-10-04T09:03:35;8.47;;;4.57;;
22359;SDS011;11347;52.030;4.690;2022-10-04T09:06:41;13.93;;;4.73;;
22359;SDS011;11347;52.030;4.690;2022-10-04T09:09:51;10.60;;;4.33;;
22359;SDS011;11347;52.030;4.690;2022-10-04T09:20:55;11.27;;;4.93;;
22359;SDS011;11347;52.030;4.690;2022-10-04T09:40:31;12.47;;;4.67;;
22359;SDS011;11347;52.030;4.690;2022-10-04T09:54:49;10.63;;;3.83;;
22359;SDS011;11347;52.030;4.690;2022-10-04T10:00:21;8.50;;;3.67;;
22359;SDS011;11347;52.030;4.690;2022-10-04T10:05:54;11.03;;;3.03;;
22359;SDS011;11347;52.030;4.690;2022-10-04T10:27:44;11.57;;;3.33;;
22359;SDS011;11347;52.030;4.690;2022-10-04T10:56:41;8.03;;;2.83;;
22359;SDS011;11347;52.030;4.690;2022-10-04T11:02:07;8.17;;;2.53;;
22359;SDS011;11347;52.030;4.690;2022-10-04T11:07:53;7.70;;;2.90;;
22359;SDS011;11347;52.030;4.690;2022-10-04T11:46:16;6.93;;;2.40;;
22359;SDS011;11347;52.030;4.690;2022-10-04T11:57:42;5.30;;;2.30;;
22359;SDS011;11347;52.030;4.690;2022-10-04T12:00:23;4.50;;;2.10;;
22359;SDS011;11347;52.030;4.690;2022-10-04T12:14:27;5.90;;;2.30;;
22359;SDS011;11347;52.030;4.690;2022-10-04T12:31:46;5.47;;;2.30;;
22359;SDS011;11347;52.030;4.690;2022-10-04T12:34:23;5.67;;;2.00;;
22359;SDS011;11347;52.030;4.690;2022-10-04T12:45:27;6.07;;;2.07;;
22359;SDS011;11347;52.030;4.690;2022-10-04T12:48:21;4.93;;;2.20;;
22359;SDS011;11347;52.030;4.690;2022-10-04T12:50:51;6.80;;;2.40;;
22359;SDS011;11347;52.030;4.690;2022-10-04T12:56:05;6.57;;;2.33;;
22359;SDS011;11347;52.030;4.690;2022-10-04T12:59:09;2.60;;;1.87;;
22359;SDS011;11347;52.030;4.690;2022-10-04T13:02:21;5.77;;;2.40;;
22359;SDS011;11347;52.030;4.690;2022-10-04T13:04:54;7.30;;;2.57;;
22359;SDS011;11347;52.030;4.690;2022-10-04T13:13:22;5.30;;;2.27;;
22359;SDS011;11347;52.030;4.690;2022-10-04T13:16:10;5.90;;;2.40;;
22359;SDS011;11347;52.030;4.690;2022-10-04T13:18:47;6.97;;;2.27;;
22359;SDS011;11347;52.030;4.690;2022-10-04T13:21:15;5.60;;;2.00;;
22359;SDS011;11347;52.030;4.690;2022-10-04T13:24:03;6.63;;;2.10;;
22359;SDS011;11347;52.030;4.690;2022-10-04T13:26:45;5.23;;;2.20;;
22359;SDS011;11347;52.030;4.690;2022-10-04T13:29:25;4.43;;;2.00;;
22359;SDS011;11347;52.030;4.690;2022-10-04T13:32:16;5.80;;;1.93;;
22359;SDS011;11347;52.030;4.690;2022-10-04T13:35:00;6.93;;;2.30;;
22359;SDS011;11347;52.030;4.690;2022-10-04T13:37:34;6.53;;;2.30;;
22359;SDS011;11347;52.030;4.690;2022-10-04T13:43:02;4.13;;;1.90;;
22359;SDS011;11347;52.030;4.690;2022-10-04T13:50:57;3.50;;;1.90;;
22359;SDS011;11347;52.030;4.690;2022-10-04T13:59:42;7.43;;;1.90;;
22359;SDS011;11347;52.030;4.690;2022-10-04T14:07:51;6.40;;;2.10;;
22359;SDS011;11347;52.030;4.690;2022-10-04T14:19:47;5.73;;;2.23;;
22359;SDS011;11347;52.030;4.690;2022-10-04T14:39:30;3.77;;;2.10;;
22359;SDS011;11347;52.030;4.690;2022-10-04T14:44:40;5.50;;;2.40;;
22359;SDS011;11347;52.030;4.690;2022-10-04T14:47:20;4.33;;;1.73;;
22359;SDS011;11347;52.030;4.690;2022-10-04T14:50:20;3.00;;;1.70;;
22359;SDS011;11347;52.030;4.690;2022-10-04T14:53:19;6.70;;;1.80;;
22359;SDS011;11347;52.030;4.690;2022-10-04T15:01:18;4.17;;;1.90;;
22359;SDS011;11347;52.030;4.690;2022-10-04T15:06:44;5.40;;;1.83;;
22359;SDS011;11347;52.030;4.690;2022-10-04T15:17:41;4.50;;;1.77;;
22359;SDS011;11347;52.030;4.690;2022-10-04T15:20:36;3.17;;;1.80;;
22359;SDS011;11347;52.030;4.690;2022-10-04T15:25:54;4.07;;;1.80;;
22359;SDS011;11347;52.030;4.690;2022-10-04T15:28:41;3.43;;;1.80;;
22359;SDS011;11347;52.030;4.690;2022-10-04T15:37:37;3.60;;;1.60;;
22359;SDS011;11347;52.030;4.690;2022-10-04T15:40:14;3.90;;;1.60;;
22359;SDS011;11347;52.030;4.690;2022-10-04T15:48:53;6.43;;;1.80;;
22359;SDS011;11347;52.030;4.690;2022-10-04T15:57:25;4.33;;;1.83;;
22359;SDS011;11347;52.030;4.690;2022-10-04T16:08:09;4.87;;;1.63;;
22359;SDS011;11347;52.030;4.690;2022-10-04T16:15:42;3.73;;;1.83;;
22359;SDS011;11347;52.030;4.690;2022-10-04T16:32:23;3.03;;;1.60;;
22359;SDS011;11347;52.030;4.690;2022-10-04T16:43:33;3.63;;;1.67;;
22359;SDS011;11347;52.030;4.690;2022-10-04T16:46:09;3.13;;;1.70;;
22359;SDS011;11347;52.030;4.690;2022-10-04T16:49:01;3.77;;;1.70;;
22359;SDS011;11347;52.030;4.690;2022-10-04T16:51:46;2.57;;;1.43;;
22359;SDS011;11347;52.030;4.690;2022-10-04T16:54:43;3.87;;;1.83;;
22359;SDS011;11347;52.030;4.690;2022-10-04T16:57:22;4.97;;;1.83;;
22359;SDS011;11347;52.030;4.690;2022-10-04T17:00:31;2.20;;;1.63;;
22359;SDS011;11347;52.030;4.690;2022-10-04T17:05:42;4.23;;;1.80;;
22359;SDS011;11347;52.030;4.690;2022-10-04T17:13:28;3.90;;;2.00;;
22359;SDS011;11347;52.030;4.690;2022-10-04T17:16:10;4.30;;;1.80;;
22359;SDS011;11347;52.030;4.690;2022-10-04T17:18:51;2.57;;;1.67;;
22359;SDS011;11347;52.030;4.690;2022-10-04T17:30:26;3.87;;;1.57;;
22359;SDS011;11347;52.030;4.690;2022-10-04T17:41:25;4.33;;;1.70;;
22359;SDS011;11347;52.030;4.690;2022-10-04T17:44:19;4.10;;;1.60;;
22359;SDS011;11347;52.030;4.690;2022-10-04T17:50:26;2.90;;;1.60;;
22359;SDS011;11347;52.030;4.690;2022-10-04T17:53:32;3.20;;;1.47;;
22359;SDS011;11347;52.030;4.690;2022-10-04T17:56:28;4.63;;;2.10;;
22359;SDS011;11347;52.030;4.690;2022-10-04T17:58:59;5.10;;;2.30;;
22359;SDS011;11347;52.030;4.690;2022-10-04T18:04:58;4.33;;;1.90;;
22359;SDS011;11347;52.030;4.690;2022-10-04T18:07:40;4.33;;;1.93;;
22359;SDS011;11347;52.030;4.690;2022-10-04T18:13:00;5.33;;;2.00;;
22359;SDS011;11347;52.030;4.690;2022-10-04T18:23:20;3.93;;;1.87;;
22359;SDS011;11347;52.030;4.690;2022-10-04T18:25:58;3.53;;;1.90;;
22359;SDS011;11347;52.030;4.690;2022-10-04T18:28:27;4.17;;;2.00;;
22359;SDS011;11347;52.030;4.690;2022-10-04T18:30:56;6.20;;;2.23;;
22359;SDS011;11347;52.030;4.690;2022-10-04T18:33:29;2.67;;;1.60;;
22359;SDS011;11347;52.030;4.690;2022-10-04T18:36:16;3.87;;;1.70;;
22359;SDS011;11347;52.030;4.690;2022-10-04T18:38:45;3.03;;;1.63;;
22359;SDS011;11347;52.030;4.690;2022-10-04T18:41:24;3.37;;;1.93;;
22359;SDS011;11347;52.030;4.690;2022-10-04T18:44:13;4.47;;;1.93;;
22359;SDS011;11347;52.030;4.690;2022-10-04T18:46:41;3.80;;;2.00;;
22359;SDS011;11347;52.030;4.690;2022-10-04T18:52:43;3.00;;;1.90;;
22359;SDS011;11347;52.030;4.690;2022-10-04T18:54:51;3.23;;;1.80;;
22359;SDS011;11347;52.030;4.690;2022-10-04T18:57:35;2.73;;;1.60;;
22359;SDS011;11347;52.030;4.690;2022-10-04T19:00:22;3.17;;;1.77;;
22359;SDS011;11347;52.030;4.690;2022-10-04T19:06:05;2.50;;;1.73;;
22359;SDS011;11347;52.030;4.690;2022-10-04T19:14:12;2.83;;;1.73;;
22359;SDS011;11347;52.030;4.690;2022-10-04T19:22:00;4.77;;;1.80;;
22359;SDS011;11347;52.030;4.690;2022-10-04T19:25:04;3.67;;;1.77;;
22359;SDS011;11347;52.030;4.690;2022-10-04T19:30:25;3.83;;;1.40;;
22359;SDS011;11347;52.030;4.690;2022-10-04T19:38:51;2.30;;;1.70;;
22359;SDS011;11347;52.030;4.690;2022-10-04T19:47:00;4.10;;;1.70;;
22359;SDS011;11347;52.030;4.690;2022-10-04T19:52:15;3.10;;;1.70;;
22359;SDS011;11347;52.030;4.690;2022-10-04T19:54:46;3.17;;;1.53;;
22359;SDS011;11347;52.030;4.690;2022-10-04T19:57:16;2.77;;;1.63;;
22359;SDS011;11347;52.030;4.690;2022-10-04T19:59:59;3.27;;;1.73;;
22359;SDS011;11347;52.030;4.690;2022-10-04T20:02:25;2.63;;;1.53;;
22359;SDS011;11347;52.030;4.690;2022-10-04T20:04:50;4.40;;;1.90;;
22359;SDS011;11347;52.030;4.690;2022-10-04T20:07:20;3.37;;;1.80;;
22359;SDS011;11347;52.030;4.690;2022-10-04T20:09:52;4.40;;;1.87;;
22359;SDS011;11347;52.030;4.690;2022-10-04T20:12:40;4.07;;;1.90;;
22359;SDS011;11347;52.030;4.690;2022-10-04T20:17:51;3.57;;;1.70;;
22359;SDS011;11347;52.030;4.690;2022-10-04T20:26:12;3.97;;;1.87;;
22359;SDS011;11347;52.030;4.690;2022-10-04T20:34:31;4.03;;;1.60;;
22359;SDS011;11347;52.030;4.690;2022-10-04T20:36:59;2.67;;;1.17;;
22359;SDS011;11347;52.030;4.690;2022-10-04T20:40:07;2.77;;;1.50;;
22359;SDS011;11347;52.030;4.690;2022-10-04T20:49:48;1.97;;;1.33;;
22359;SDS011;11347;52.030;4.690;2022-10-04T20:52:15;4.43;;;1.50;;
22359;SDS011;11347;52.030;4.690;2022-10-04T20:54:50;1.90;;;1.40;;
22359;SDS011;11347;52.030;4.690;2022-10-04T20:57:17;2.37;;;1.30;;
22359;SDS011;11347;52.030;4.690;2022-10-04T20:59:48;2.40;;;1.60;;
22359;SDS011;11347;52.030;4.690;2022-10-04T21:02:20;4.33;;;1.40;;
22359;SDS011;11347;52.030;4.690;2022-10-04T21:04:47;3.13;;;1.30;;
22359;SDS011;11347;52.030;4.690;2022-10-04T21:07:20;4.63;;;1.63;;
22359;SDS011;11347;52.030;4.690;2022-10-04T21:09:47;4.30;;;1.40;;
22359;SDS011;11347;52.030;4.690;2022-10-04T21:17:41;3.07;;;1.20;;
22359;SDS011;11347;52.030;4.690;2022-10-04T21:20:14;1.97;;;1.20;;
22359;SDS011;11347;52.030;4.690;2022-10-04T21:23:08;2.37;;;1.20;;
22359;SDS011;11347;52.030;4.690;2022-10-04T21:25:45;1.20;;;0.90;;
22359;SDS011;11347;52.030;4.690;2022-10-04T21:28:32;2.07;;;0.97;;
22359;SDS011;11347;52.030;4.690;2022-10-04T21:30:58;3.17;;;1.20;;
22359;SDS011;11347;52.030;4.690;2022-10-04T21:33:24;2.20;;;1.10;;
22359;SDS011;11347;52.030;4.690;2022-10-04T21:35:50;2.47;;;1.20;;
22359;SDS011;11347;52.030;4.690;2022-10-04T21:38:16;2.20;;;0.73;;
22359;SDS011;11347;52.030;4.690;2022-10-04T21:40:43;3.30;;;1.10;;
22359;SDS011;11347;52.030;4.690;2022-10-04T21:43:09;2.10;;;1.00;;
22359;SDS011;11347;52.030;4.690;2022-10-04T21:45:34;3.03;;;1.03;;
22359;SDS011;11347;52.030;4.690;2022-10-04T21:48:00;1.80;;;1.00;;
22359;SDS011;11347;52.030;4.690;2022-10-04T21:50:25;2.80;;;1.10;;
22359;SDS011;11347;52.030;4.690;2022-10-04T21:52:51;1.33;;;0.90;;
22359;SDS011;11347;52.030;4.690;2022-10-04T21:55:16;3.90;;;1.10;;
22359;SDS011;11347;52.030;4.690;2022-10-04T21:57:42;1.70;;;0.90;;
22359;SDS011;11347;52.030;4.690;2022-10-04T22:00:08;1.07;;;0.80;;
22359;SDS011;11347;52.030;4.690;2022-10-04T22:02:34;4.10;;;1.07;;
22359;SDS011;11347;52.030;4.690;2022-10-04T22:04:59;1.57;;;1.03;;
22359;SDS011;11347;52.030;4.690;2022-10-04T22:07:25;1.50;;;0.90;;
22359;SDS011;11347;52.030;4.690;2022-10-04T22:09:50;2.97;;;1.10;;
22359;SDS011;11347;52.030;4.690;2022-10-04T22:12:16;1.90;;;1.03;;
22359;SDS011;11347;52.030;4.690;2022-10-04T22:14:41;2.63;;;1.00;;
22359;SDS011;11347;52.030;4.690;2022-10-04T22:17:07;1.80;;;1.10;;
22359;SDS011;11347;52.030;4.690;2022-10-04T22:19:33;2.80;;;1.30;;
22359;SDS011;11347;52.030;4.690;2022-10-04T22:21:58;3.03;;;1.20;;
22359;SDS011;11347;52.030;4.690;2022-10-04T22:24:24;1.97;;;1.00;;
22359;SDS011;11347;52.030;4.690;2022-10-04T22:26:49;2.00;;;1.27;;
22359;SDS011;11347;52.030;4.690;2022-10-04T22:29:15;3.47;;;1.30;;
22359;SDS011;11347;52.030;4.690;2022-10-04T22:31:43;1.90;;;1.00;;
22359;SDS011;11347;52.030;4.690;2022-10-04T22:34:15;1.97;;;1.20;;
22359;SDS011;11347;52.030;4.690;2022-10-04T22:36:41;4.60;;;1.50;;
22359;SDS011;11347;52.030;4.690;2022-10-04T22:42:09;3.37;;;1.63;;
22359;SDS011;11347;52.030;4.690;2022-10-04T22:46:57;2.63;;;1.30;;
22359;SDS011;11347;52.030;4.690;2022-10-04T22:49:25;2.37;;;1.37;;
22359;SDS011;11347;52.030;4.690;2022-10-04T22:51:55;1.87;;;1.23;;
22359;SDS011;11347;52.030;4.690;2022-10-04T22:54:24;2.70;;;1.50;;
22359;SDS011;11347;52.030;4.690;2022-10-04T22:56:55;3.03;;;1.20;;
22359;SDS011;11347;52.030;4.690;2022-10-04T22:59:23;2.60;;;1.47;;
22359;SDS011;11347;52.030;4.690;2022-10-04T23:01:57;2.57;;;1.30;;
22359;SDS011;11347;52.030;4.690;2022-10-04T23:04:24;2.17;;;1.17;;
22359;SDS011;11347;52.030;4.690;2022-10-04T23:06:51;1.87;;;1.17;;
22359;SDS011;11347;52.030;4.690;2022-10-04T23:09:17;3.63;;;1.30;;
22359;SDS011;11347;52.030;4.690;2022-10-04T23:11:43;2.10;;;1.20;;
22359;SDS011;11347;52.030;4.690;2022-10-04T23:14:09;3.00;;;1.50;;
22359;SDS011;11347;52.030;4.690;2022-10-04T23:16:35;3.50;;;1.57;;
22359;SDS011;11347;52.030;4.690;2022-10-04T23:19:16;2.83;;;1.30;;
22359;SDS011;11347;52.030;4.690;2022-10-04T23:21:44;1.63;;;1.10;;
22359;SDS011;11347;52.030;4.690;2022-10-04T23:24:16;2.23;;;1.27;;
22359;SDS011;11347;52.030;4.690;2022-10-04T23:26:45;2.10;;;1.07;;
22359;SDS011;11347;52.030;4.690;2022-10-04T23:29:16;1.53;;;1.10;;
22359;SDS011;11347;52.030;4.690;2022-10-04T23:31:45;2.57;;;1.20;;
22359;SDS011;11347;52.030;4.690;2022-10-04T23:34:17;1.67;;;1.10;;
22359;SDS011;11347;52.030;4.690;2022-10-04T23:36:48;1.77;;;1.00;;
22359;SDS011;11347;52.030;4.690;2022-10-04T23:39:20;2.80;;;1.30;;
22359;SDS011;11347;52.030;4.690;2022-10-04T23:41:48;1.80;;;1.00;;
22359;SDS011;11347;52.030;4.690;2022-10-04T23:44:15;2.97;;;1.00;;
22359;SDS011;11347;52.030;4.690;2022-10-04T23:46:40;2.00;;;0.93;;
22359;SDS011;11347;52.030;4.690;2022-10-04T23:49:09;3.23;;;0.97;;
22359;SDS011;11347;52.030;4.690;2022-10-04T23:51:40;2.43;;;1.20;;
22359;SDS011;11347;52.030;4.690;2022-10-04T23:54:11;1.20;;;1.00;;
22359;SDS011;11347;52.030;4.690;2022-10-04T23:56:40;1.03;;;0.80;;
22359;SDS011;11347;52.030;4.690;2022-10-04T23:59:07;1.77;;;0.90;;
